sensor_id;sensor_type;location;lat;lon;timestamp;pressure;altitude;pressure_sealevel;temperature;humidity
42591;BME280;28218;53.342;-6.216;2023-05-03T00:00:15;102393.88;;;13.17;100.00
42591;BME280;28218;53.342;-6.216;2023-05-03T00:02:45;102393.34;;;13.13;100.00
42591;BME280;28218;53.342;-6.216;2023-05-03T00:05:13;102394.72;;;13.08;100.00
42591;BME280;28218;53.342;-6.216;2023-05-03T00:07:44;102394.72;;;13.08;100.00
42591;BME280;28218;53.342;-6.216;2023-05-03T00:10:13;102388.59;;;13.07;100.00
42591;BME280;28218;53.342;-6.216;2023-05-03T00:12:43;102386.78;;;13.08;100.00
42591;BME280;28218;53.342;-6.216;2023-05-03T00:15:11;102391.69;;;13.02;100.00
42591;BME280;28218;53.342;-6.216;2023-05-03T00:17:40;102386.69;;;12.99;100.00
42591;BME280;28218;53.342;-6.216;2023-05-03T00:20:10;102394.47;;;13.01;100.00
42591;BME280;28218;53.342;-6.216;2023-05-03T00:22:39;102402.41;;;13.01;100.00
42591;BME280;28218;53.342;-6.216;2023-05-03T00:25:08;102394.47;;;13.01;100.00
42591;BME280;28218;53.342;-6.216;2023-05-03T00:27:36;102394.47;;;13.01;100.00
42591;BME280;28218;53.342;-6.216;2023-05-03T00:30:06;102396.13;;;13.02;100.00
42591;BME280;28218;53.342;-6.216;2023-05-03T00:32:35;102393.50;;;13.02;100.00
42591;BME280;28218;53.342;-6.216;2023-05-03T00:35:04;102391.16;;;12.99;100.00
42591;BME280;28218;53.342;-6.216;2023-05-03T00:37:35;102392.50;;;13.03;100.00
42591;BME280;28218;53.342;-6.216;2023-05-03T00:40:04;102380.25;;;13.02;100.00
42591;BME280;28218;53.342;-6.216;2023-05-03T00:42:34;102382.78;;;13.03;100.00
42591;BME280;28218;53.342;-6.216;2023-05-03T00:45:03;102378.16;;;13.05;100.00
42591;BME280;28218;53.342;-6.216;2023-05-03T00:47:35;102379.97;;;13.05;100.00
42591;BME280;28218;53.342;-6.216;2023-05-03T00:50:05;102373.56;;;13.08;100.00
42591;BME280;28218;53.342;-6.216;2023-05-03T00:52:35;102374.25;;;13.10;100.00
42591;BME280;28218;53.342;-6.216;2023-05-03T00:55:04;102375.25;;;13.09;100.00
42591;BME280;28218;53.342;-6.216;2023-05-03T00:57:32;102371.84;;;13.16;100.00
42591;BME280;28218;53.342;-6.216;2023-05-03T01:00:01;102369.38;;;13.15;100.00
42591;BME280;28218;53.342;-6.216;2023-05-03T01:02:30;102367.94;;;13.20;100.00
42591;BME280;28218;53.342;-6.216;2023-05-03T01:04:58;102374.91;;;13.21;100.00
42591;BME280;28218;53.342;-6.216;2023-05-03T01:07:37;102363.41;;;13.22;100.00
42591;BME280;28218;53.342;-6.216;2023-05-03T01:10:14;102366.56;;;13.26;100.00
42591;BME280;28218;53.342;-6.216;2023-05-03T01:12:52;102358.50;;;13.27;100.00
42591;BME280;28218;53.342;-6.216;2023-05-03T01:15:34;102364.31;;;13.31;100.00
42591;BME280;28218;53.342;-6.216;2023-05-03T01:18:07;102358.19;;;13.30;100.00
42591;BME280;28218;53.342;-6.216;2023-05-03T01:20:41;102361.66;;;13.31;100.00
42591;BME280;28218;53.342;-6.216;2023-05-03T01:23:17;102356.53;;;13.29;100.00
42591;BME280;28218;53.342;-6.216;2023-05-03T01:25:51;102357.06;;;13.33;100.00
42591;BME280;28218;53.342;-6.216;2023-05-03T01:28:20;102362.38;;;13.33;100.00
42591;BME280;28218;53.342;-6.216;2023-05-03T01:30:49;102354.56;;;13.32;100.00
42591;BME280;28218;53.342;-6.216;2023-05-03T01:33:29;102355.41;;;13.32;100.00
42591;BME280;28218;53.342;-6.216;2023-05-03T01:36:03;102354.41;;;13.33;100.00
42591;BME280;28218;53.342;-6.216;2023-05-03T01:38:35;102348.97;;;13.35;100.00
42591;BME280;28218;53.342;-6.216;2023-05-03T01:41:09;102353.44;;;13.34;100.00
42591;BME280;28218;53.342;-6.216;2023-05-03T01:43:39;102350.94;;;13.33;100.00
42591;BME280;28218;53.342;-6.216;2023-05-03T01:46:07;102359.00;;;13.31;100.00
42591;BME280;28218;53.342;-6.216;2023-05-03T01:48:36;102350.13;;;13.32;100.00
42591;BME280;28218;53.342;-6.216;2023-05-03T01:51:05;102345.78;;;13.31;100.00
42591;BME280;28218;53.342;-6.216;2023-05-03T01:53:33;102345.50;;;13.34;100.00
42591;BME280;28218;53.342;-6.216;2023-05-03T01:56:02;102344.50;;;13.35;100.00
42591;BME280;28218;53.342;-6.216;2023-05-03T01:58:31;102339.91;;;13.37;100.00
42591;BME280;28218;53.342;-6.216;2023-05-03T02:01:00;102334.75;;;13.36;100.00
42591;BME280;28218;53.342;-6.216;2023-05-03T02:03:28;102334.91;;;13.34;100.00
42591;BME280;28218;53.342;-6.216;2023-05-03T02:05:56;102336.03;;;13.32;100.00
42591;BME280;28218;53.342;-6.216;2023-05-03T02:08:25;102325.91;;;13.27;100.00
42591;BME280;28218;53.342;-6.216;2023-05-03T02:10:53;102332.16;;;13.26;100.00
42591;BME280;28218;53.342;-6.216;2023-05-03T02:13:22;102335.19;;;13.21;100.00
42591;BME280;28218;53.342;-6.216;2023-05-03T02:15:51;102336.34;;;13.19;100.00
42591;BME280;28218;53.342;-6.216;2023-05-03T02:18:21;102339.25;;;13.16;100.00
42591;BME280;28218;53.342;-6.216;2023-05-03T02:20:49;102332.16;;;13.16;100.00
42591;BME280;28218;53.342;-6.216;2023-05-03T02:23:17;102335.63;;;13.17;100.00
42591;BME280;28218;53.342;-6.216;2023-05-03T02:25:46;102338.28;;;13.17;100.00
42591;BME280;28218;53.342;-6.216;2023-05-03T02:28:15;102335.63;;;13.17;100.00
42591;BME280;28218;53.342;-6.216;2023-05-03T02:30:43;102332.31;;;13.15;100.00
42591;BME280;28218;53.342;-6.216;2023-05-03T02:33:12;102326.19;;;13.14;100.00
42591;BME280;28218;53.342;-6.216;2023-05-03T02:35:41;102334.97;;;13.15;100.00
42591;BME280;28218;53.342;-6.216;2023-05-03T02:38:09;102331.63;;;13.13;100.00
42591;BME280;28218;53.342;-6.216;2023-05-03T02:40:38;102330.09;;;13.10;100.00
42591;BME280;28218;53.342;-6.216;2023-05-03T02:43:06;102332.75;;;13.10;100.00
42591;BME280;28218;53.342;-6.216;2023-05-03T02:45:34;102334.56;;;13.10;100.00
42591;BME280;28218;53.342;-6.216;2023-05-03T02:48:03;102328.13;;;13.12;100.00
42591;BME280;28218;53.342;-6.216;2023-05-03T02:50:33;102327.63;;;13.09;100.00
42591;BME280;28218;53.342;-6.216;2023-05-03T02:53:01;102324.41;;;13.05;100.00
42591;BME280;28218;53.342;-6.216;2023-05-03T02:55:30;102330.53;;;13.05;100.00
42591;BME280;28218;53.342;-6.216;2023-05-03T02:57:58;102329.56;;;13.07;100.00
42591;BME280;28218;53.342;-6.216;2023-05-03T03:00:27;102332.19;;;13.07;100.00
42591;BME280;28218;53.342;-6.216;2023-05-03T03:02:55;102330.69;;;13.04;100.00
42591;BME280;28218;53.342;-6.216;2023-05-03T03:05:24;102327.06;;;13.05;100.00
42591;BME280;28218;53.342;-6.216;2023-05-03T03:07:54;102328.72;;;13.06;100.00
42591;BME280;28218;53.342;-6.216;2023-05-03T03:10:22;102331.66;;;13.03;100.00
42591;BME280;28218;53.342;-6.216;2023-05-03T03:12:50;102325.25;;;13.05;100.00
42591;BME280;28218;53.342;-6.216;2023-05-03T03:15:19;102330.69;;;13.04;100.00
42591;BME280;28218;53.342;-6.216;2023-05-03T03:17:47;102325.41;;;13.04;100.00
42591;BME280;28218;53.342;-6.216;2023-05-03T03:20:16;102322.88;;;13.02;100.00
42591;BME280;28218;53.342;-6.216;2023-05-03T03:22:44;102324.69;;;13.02;100.00
42591;BME280;28218;53.342;-6.216;2023-05-03T03:25:14;102324.84;;;13.00;100.00
42591;BME280;28218;53.342;-6.216;2023-05-03T03:27:43;102325.84;;;12.99;100.00
42591;BME280;28218;53.342;-6.216;2023-05-03T03:30:11;102319.72;;;12.99;100.00
42591;BME280;28218;53.342;-6.216;2023-05-03T03:32:40;102317.63;;;12.93;100.00
42591;BME280;28218;53.342;-6.216;2023-05-03T03:35:09;102324.06;;;12.90;100.00
42591;BME280;28218;53.342;-6.216;2023-05-03T03:37:37;102318.06;;;12.88;100.00
42591;BME280;28218;53.342;-6.216;2023-05-03T03:40:07;102310.69;;;12.82;100.00
42591;BME280;28218;53.342;-6.216;2023-05-03T03:42:37;102311.94;;;12.88;100.00
42591;BME280;28218;53.342;-6.216;2023-05-03T03:45:06;102319.47;;;12.83;100.00
42591;BME280;28218;53.342;-6.216;2023-05-03T03:47:35;102306.25;;;12.83;100.00
42591;BME280;28218;53.342;-6.216;2023-05-03T03:50:04;102304.31;;;12.85;100.00
42591;BME280;28218;53.342;-6.216;2023-05-03T03:52:32;102309.44;;;12.86;100.00
42591;BME280;28218;53.342;-6.216;2023-05-03T03:55:01;102309.59;;;12.85;100.00
42591;BME280;28218;53.342;-6.216;2023-05-03T03:57:29;102301.22;;;12.89;100.00
42591;BME280;28218;53.342;-6.216;2023-05-03T03:59:59;102299.25;;;12.91;100.00
42591;BME280;28218;53.342;-6.216;2023-05-03T04:02:28;102296.88;;;12.88;100.00
42591;BME280;28218;53.342;-6.216;2023-05-03T04:04:56;102296.88;;;12.88;100.00
42591;BME280;28218;53.342;-6.216;2023-05-03T04:07:24;102303.16;;;12.87;100.00
42591;BME280;28218;53.342;-6.216;2023-05-03T04:09:53;102301.22;;;12.89;100.00
42591;BME280;28218;53.342;-6.216;2023-05-03T04:12:22;102301.22;;;12.89;100.00
42591;BME280;28218;53.342;-6.216;2023-05-03T04:14:50;102297.44;;;12.92;100.00
42591;BME280;28218;53.342;-6.216;2023-05-03T04:17:20;102298.59;;;12.89;100.00
42591;BME280;28218;53.342;-6.216;2023-05-03T04:19:48;102290.66;;;12.89;100.00
42591;BME280;28218;53.342;-6.216;2023-05-03T04:22:16;102295.22;;;12.87;100.00
42591;BME280;28218;53.342;-6.216;2023-05-03T04:24:45;102296.88;;;12.88;100.00
42591;BME280;28218;53.342;-6.216;2023-05-03T04:27:13;102298.16;;;12.84;100.00
42591;BME280;28218;53.342;-6.216;2023-05-03T04:29:43;102297.47;;;12.82;100.00
42591;BME280;28218;53.342;-6.216;2023-05-03T04:32:12;102298.16;;;12.84;100.00
42591;BME280;28218;53.342;-6.216;2023-05-03T04:34:44;102303.88;;;12.79;100.00
42591;BME280;28218;53.342;-6.216;2023-05-03T04:37:15;102300.41;;;12.79;100.00
42591;BME280;28218;53.342;-6.216;2023-05-03T04:39:44;102301.38;;;12.78;100.00
42591;BME280;28218;53.342;-6.216;2023-05-03T04:42:12;102304.63;;;12.72;100.00
42591;BME280;28218;53.342;-6.216;2023-05-03T04:44:41;102301.53;;;12.76;100.00
42591;BME280;28218;53.342;-6.216;2023-05-03T04:47:10;102306.94;;;12.75;100.00
42591;BME280;28218;53.342;-6.216;2023-05-03T04:49:38;102312.16;;;12.67;100.00
42591;BME280;28218;53.342;-6.216;2023-05-03T04:52:08;102312.56;;;12.62;100.00
42591;BME280;28218;53.342;-6.216;2023-05-03T04:54:37;102316.06;;;12.63;100.00
42591;BME280;28218;53.342;-6.216;2023-05-03T04:57:05;102319.53;;;12.63;100.00
42591;BME280;28218;53.342;-6.216;2023-05-03T04:59:36;102322.41;;;12.70;100.00
42591;BME280;28218;53.342;-6.216;2023-05-03T05:02:04;102322.41;;;12.70;100.00
42591;BME280;28218;53.342;-6.216;2023-05-03T05:04:32;102324.13;;;12.71;100.00
42591;BME280;28218;53.342;-6.216;2023-05-03T05:07:00;102322.28;;;12.71;100.00
42591;BME280;28218;53.342;-6.216;2023-05-03T05:09:30;102321.03;;;12.75;100.00
42591;BME280;28218;53.342;-6.216;2023-05-03T05:11:59;102312.94;;;12.77;100.00
42591;BME280;28218;53.342;-6.216;2023-05-03T05:14:29;102324.19;;;12.79;100.00
42591;BME280;28218;53.342;-6.216;2023-05-03T05:16:57;102324.34;;;12.77;100.00
42591;BME280;28218;53.342;-6.216;2023-05-03T05:19:26;102317.66;;;12.83;100.00
42591;BME280;28218;53.342;-6.216;2023-05-03T05:21:54;102321.97;;;12.84;100.00
42591;BME280;28218;53.342;-6.216;2023-05-03T05:24:22;102317.38;;;12.86;100.00
42591;BME280;28218;53.342;-6.216;2023-05-03T05:26:52;102326.00;;;12.88;100.00
42591;BME280;28218;53.342;-6.216;2023-05-03T05:29:20;102328.50;;;12.90;100.00
42591;BME280;28218;53.342;-6.216;2023-05-03T05:31:49;102327.53;;;12.91;100.00
42591;BME280;28218;53.342;-6.216;2023-05-03T05:34:17;102326.28;;;12.95;100.00
42591;BME280;28218;53.342;-6.216;2023-05-03T05:36:46;102333.22;;;12.96;100.00
42591;BME280;28218;53.342;-6.216;2023-05-03T05:39:14;102331.81;;;13.01;100.00
42591;BME280;28218;53.342;-6.216;2023-05-03T05:41:42;102330.09;;;13.10;100.00
42591;BME280;28218;53.342;-6.216;2023-05-03T05:44:12;102335.13;;;13.13;100.00
42591;BME280;28218;53.342;-6.216;2023-05-03T05:46:40;102333.44;;;13.12;100.00
42591;BME280;28218;53.342;-6.216;2023-05-03T05:49:08;102339.59;;;13.13;100.00
42591;BME280;28218;53.342;-6.216;2023-05-03T05:51:37;102336.06;;;13.22;100.00
42591;BME280;28218;53.342;-6.216;2023-05-03T05:54:05;102334.78;;;13.26;100.00
42591;BME280;28218;53.342;-6.216;2023-05-03T05:56:34;102335.50;;;13.28;100.00
42591;BME280;28218;53.342;-6.216;2023-05-03T05:59:02;102334.06;;;13.34;100.00
42591;BME280;28218;53.342;-6.216;2023-05-03T06:01:33;102334.22;;;13.32;100.00
42591;BME280;28218;53.342;-6.216;2023-05-03T06:04:01;102333.63;;;13.38;100.00
42591;BME280;28218;53.342;-6.216;2023-05-03T06:06:29;102336.38;;;13.46;100.00
42591;BME280;28218;53.342;-6.216;2023-05-03T06:08:58;102331.75;;;13.48;100.00
42591;BME280;28218;53.342;-6.216;2023-05-03T06:11:35;102335.50;;;13.55;100.00
42591;BME280;28218;53.342;-6.216;2023-05-03T06:14:04;102324.59;;;13.59;100.00
42591;BME280;28218;53.342;-6.216;2023-05-03T06:16:36;102323.16;;;13.64;100.00
42591;BME280;28218;53.342;-6.216;2023-05-03T06:19:05;102327.63;;;13.64;100.00
42591;BME280;28218;53.342;-6.216;2023-05-03T06:21:33;102332.34;;;13.70;100.00
42591;BME280;28218;53.342;-6.216;2023-05-03T06:24:01;102324.06;;;13.73;100.00
42591;BME280;28218;53.342;-6.216;2023-05-03T06:26:30;102318.13;;;13.71;100.00
42591;BME280;28218;53.342;-6.216;2023-05-03T06:28:58;102322.81;;;13.77;100.00
42591;BME280;28218;53.342;-6.216;2023-05-03T06:31:27;102317.75;;;13.84;100.00
42591;BME280;28218;53.342;-6.216;2023-05-03T06:33:57;102318.97;;;13.89;100.00
42591;BME280;28218;53.342;-6.216;2023-05-03T06:36:25;102319.03;;;13.97;100.00
42591;BME280;28218;53.342;-6.216;2023-05-03T06:38:55;102311.38;;;13.94;100.00
42591;BME280;28218;53.342;-6.216;2023-05-03T06:41:24;102315.41;;;13.98;100.00
42591;BME280;28218;53.342;-6.216;2023-05-03T06:43:52;102311.75;;;13.99;100.00
42591;BME280;28218;53.342;-6.216;2023-05-03T06:46:20;102313.97;;;14.04;100.00
42591;BME280;28218;53.342;-6.216;2023-05-03T06:48:49;102311.97;;;14.06;100.00
42591;BME280;28218;53.342;-6.216;2023-05-03T06:51:18;102308.75;;;14.12;100.00
42591;BME280;28218;53.342;-6.216;2023-05-03T06:53:53;102312.88;;;14.15;100.00
42591;BME280;28218;53.342;-6.216;2023-05-03T06:56:22;102313.06;;;14.13;100.00
42591;BME280;28218;53.342;-6.216;2023-05-03T06:58:50;102312.22;;;14.13;100.00
42591;BME280;28218;53.342;-6.216;2023-05-03T07:01:18;102309.78;;;14.19;100.00
42591;BME280;28218;53.342;-6.216;2023-05-03T07:03:47;102303.72;;;14.27;100.00
42591;BME280;28218;53.342;-6.216;2023-05-03T07:06:15;102311.34;;;14.30;100.00
42591;BME280;28218;53.342;-6.216;2023-05-03T07:08:45;102310.06;;;14.34;100.00
42591;BME280;28218;53.342;-6.216;2023-05-03T07:11:13;102311.41;;;14.38;100.00
42591;BME280;28218;53.342;-6.216;2023-05-03T07:13:42;102311.94;;;14.42;100.00
42591;BME280;28218;53.342;-6.216;2023-05-03T07:16:10;102307.28;;;14.36;100.00
42591;BME280;28218;53.342;-6.216;2023-05-03T07:18:38;102310.75;;;14.36;100.00
42591;BME280;28218;53.342;-6.216;2023-05-03T07:21:06;102308.31;;;14.43;100.00
42591;BME280;28218;53.342;-6.216;2023-05-03T07:23:35;102313.41;;;14.36;100.00
42591;BME280;28218;53.342;-6.216;2023-05-03T07:26:04;102302.34;;;14.41;100.00
42591;BME280;28218;53.342;-6.216;2023-05-03T07:28:33;102299.97;;;14.38;100.00
42591;BME280;28218;53.342;-6.216;2023-05-03T07:31:01;102302.94;;;14.35;100.00
42591;BME280;28218;53.342;-6.216;2023-05-03T07:33:33;102304.75;;;14.34;100.00
42591;BME280;28218;53.342;-6.216;2023-05-03T07:36:01;102307.41;;;14.34;100.00
42591;BME280;28218;53.342;-6.216;2023-05-03T07:38:29;102312.03;;;14.32;100.00
42591;BME280;28218;53.342;-6.216;2023-05-03T07:40:59;102309.63;;;14.21;100.00
42591;BME280;28218;53.342;-6.216;2023-05-03T07:43:29;102320.47;;;14.27;100.00
42591;BME280;28218;53.342;-6.216;2023-05-03T07:45:57;102314.31;;;14.27;100.00
42591;BME280;28218;53.342;-6.216;2023-05-03T07:48:26;102313.69;;;14.33;100.00
42591;BME280;28218;53.342;-6.216;2023-05-03T07:50:54;102308.56;;;14.31;100.00
42591;BME280;28218;53.342;-6.216;2023-05-03T07:53:22;102308.69;;;14.30;100.00
42591;BME280;28218;53.342;-6.216;2023-05-03T07:55:53;102312.66;;;14.26;100.00
42591;BME280;28218;53.342;-6.216;2023-05-03T07:58:22;102310.47;;;14.21;100.00
42591;BME280;28218;53.342;-6.216;2023-05-03T08:01:06;102303.66;;;14.19;100.00
42591;BME280;28218;53.342;-6.216;2023-05-03T08:03:35;102305.47;;;14.18;100.00
42591;BME280;28218;53.342;-6.216;2023-05-03T08:06:03;102308.78;;;14.20;100.00
42591;BME280;28218;53.342;-6.216;2023-05-03T08:08:32;102312.75;;;14.16;100.00
42591;BME280;28218;53.342;-6.216;2023-05-03T08:11:01;102316.22;;;14.17;100.00
42591;BME280;28218;53.342;-6.216;2023-05-03T08:13:30;102307.59;;;14.15;100.00
42591;BME280;28218;53.342;-6.216;2023-05-03T08:15:58;102313.88;;;14.14;100.00
42591;BME280;28218;53.342;-6.216;2023-05-03T08:18:28;102307.75;;;14.13;100.00
42591;BME280;28218;53.342;-6.216;2023-05-03T08:20:56;102310.69;;;14.10;100.00
42591;BME280;28218;53.342;-6.216;2023-05-03T08:23:25;102305.25;;;14.12;100.00
42591;BME280;28218;53.342;-6.216;2023-05-03T08:25:53;102299.50;;;14.16;100.00
42591;BME280;28218;53.342;-6.216;2023-05-03T08:28:22;102302.00;;;14.18;100.00
42591;BME280;28218;53.342;-6.216;2023-05-03T08:30:50;102298.41;;;14.27;100.00
42591;BME280;28218;53.342;-6.216;2023-05-03T08:33:19;102307.03;;;14.29;100.00
42591;BME280;28218;53.342;-6.216;2023-05-03T08:35:48;102304.91;;;14.32;100.00
42591;BME280;28218;53.342;-6.216;2023-05-03T08:38:16;102300.97;;;14.37;100.00
42591;BME280;28218;53.342;-6.216;2023-05-03T08:40:47;102292.72;;;14.40;100.00
42591;BME280;28218;53.342;-6.216;2023-05-03T08:43:19;102291.25;;;14.45;100.00
42591;BME280;28218;53.342;-6.216;2023-05-03T08:45:47;102291.66;;;14.50;100.00
42591;BME280;28218;53.342;-6.216;2023-05-03T08:48:16;102287.19;;;14.51;100.00
42591;BME280;28218;53.342;-6.216;2023-05-03T08:50:44;102284.72;;;14.57;100.00
42591;BME280;28218;53.342;-6.216;2023-05-03T08:53:14;102286.59;;;14.65;100.00
42591;BME280;28218;53.342;-6.216;2023-05-03T08:55:42;102286.09;;;14.62;100.00
42591;BME280;28218;53.342;-6.216;2023-05-03T08:58:11;102283.19;;;14.73;100.00
42591;BME280;28218;53.342;-6.216;2023-05-03T09:00:39;102284.97;;;14.72;100.00
42591;BME280;28218;53.342;-6.216;2023-05-03T09:03:11;102285.56;;;14.84;100.00
42591;BME280;28218;53.342;-6.216;2023-05-03T09:05:39;102292.53;;;14.85;100.00
42591;BME280;28218;53.342;-6.216;2023-05-03T09:08:11;102283.63;;;14.94;100.00
42591;BME280;28218;53.342;-6.216;2023-05-03T09:10:42;102282.31;;;14.98;100.00
42591;BME280;28218;53.342;-6.216;2023-05-03T09:13:10;102287.78;;;14.97;100.00
42591;BME280;28218;53.342;-6.216;2023-05-03T09:15:39;102290.44;;;14.97;100.00
42591;BME280;28218;53.342;-6.216;2023-05-03T09:18:09;102290.78;;;15.02;100.00
42591;BME280;28218;53.342;-6.216;2023-05-03T09:20:39;102291.41;;;14.96;100.00
42591;BME280;28218;53.342;-6.216;2023-05-03T09:23:08;102289.09;;;14.93;100.00
42591;BME280;28218;53.342;-6.216;2023-05-03T09:25:45;102296.53;;;14.89;100.00
42591;BME280;28218;53.342;-6.216;2023-05-03T09:28:14;102295.22;;;14.93;100.00
42591;BME280;28218;53.342;-6.216;2023-05-03T09:30:44;102295.88;;;14.95;100.00
42591;BME280;28218;53.342;-6.216;2023-05-03T09:33:13;102290.28;;;14.98;100.00
42591;BME280;28218;53.342;-6.216;2023-05-03T09:35:58;102285.97;;;14.97;100.00
42591;BME280;28218;53.342;-6.216;2023-05-03T09:38:27;102291.56;;;14.94;100.00
42591;BME280;28218;53.342;-6.216;2023-05-03T09:40:56;102302.25;;;15.02;100.00
42591;BME280;28218;53.342;-6.216;2023-05-03T09:43:25;102297.28;;;15.07;100.00
42591;BME280;28218;53.342;-6.216;2023-05-03T09:46:07;102290.66;;;15.12;100.00
42591;BME280;28218;53.342;-6.216;2023-05-03T09:48:35;102289.72;;;15.21;100.00
42591;BME280;28218;53.342;-6.216;2023-05-03T09:51:04;102288.09;;;15.36;100.00
42591;BME280;28218;53.342;-6.216;2023-05-03T09:53:32;102282.81;;;15.44;100.00
42591;BME280;28218;53.342;-6.216;2023-05-03T09:56:04;102284.84;;;15.58;100.00
42591;BME280;28218;53.342;-6.216;2023-05-03T09:58:35;102285.72;;;15.67;100.00
42591;BME280;28218;53.342;-6.216;2023-05-03T10:01:03;102283.53;;;15.71;100.00
42591;BME280;28218;53.342;-6.216;2023-05-03T10:03:38;102288.88;;;15.79;100.00
42591;BME280;28218;53.342;-6.216;2023-05-03T10:06:14;102287.06;;;15.79;100.00
42591;BME280;28218;53.342;-6.216;2023-05-03T10:08:48;102292.19;;;15.73;100.00
42591;BME280;28218;53.342;-6.216;2023-05-03T10:11:23;102296.19;;;15.69;100.00
42591;BME280;28218;53.342;-6.216;2023-05-03T10:13:53;102297.69;;;15.88;100.00
42591;BME280;28218;53.342;-6.216;2023-05-03T10:16:27;102297.56;;;16.05;100.00
42591;BME280;28218;53.342;-6.216;2023-05-03T10:19:04;102294.88;;;16.14;100.00
42591;BME280;28218;53.342;-6.216;2023-05-03T10:21:54;102303.69;;;16.22;100.00
42591;BME280;28218;53.342;-6.216;2023-05-03T10:24:23;102309.19;;;16.29;100.00
42591;BME280;28218;53.342;-6.216;2023-05-03T10:26:54;102304.34;;;16.32;100.00
42591;BME280;28218;53.342;-6.216;2023-05-03T10:29:45;102310.16;;;16.36;100.00
42591;BME280;28218;53.342;-6.216;2023-05-03T10:35:11;102304.19;;;16.42;100.00
42591;BME280;28218;53.342;-6.216;2023-05-03T10:37:41;102311.16;;;16.27;100.00
42591;BME280;28218;53.342;-6.216;2023-05-03T10:40:12;102309.84;;;16.39;100.00
42591;BME280;28218;53.342;-6.216;2023-05-03T10:42:44;102299.00;;;16.57;100.00
42591;BME280;28218;53.342;-6.216;2023-05-03T10:45:22;102310.31;;;16.59;100.00
42591;BME280;28218;53.342;-6.216;2023-05-03T10:48:16;102306.16;;;16.48;100.00
42591;BME280;28218;53.342;-6.216;2023-05-03T10:50:48;102302.53;;;16.25;100.00
42591;BME280;28218;53.342;-6.216;2023-05-03T10:53:35;102290.72;;;15.95;100.00
42591;BME280;28218;53.342;-6.216;2023-05-03T10:56:05;102283.41;;;15.97;100.00
42591;BME280;28218;53.342;-6.216;2023-05-03T10:58:37;102313.16;;;15.92;100.00
42591;BME280;28218;53.342;-6.216;2023-05-03T11:01:09;102294.56;;;16.00;100.00
42591;BME280;28218;53.342;-6.216;2023-05-03T11:03:44;102299.38;;;16.05;100.00
42591;BME280;28218;53.342;-6.216;2023-05-03T11:06:28;102300.88;;;15.91;100.00
42591;BME280;28218;53.342;-6.216;2023-05-03T11:08:57;102301.19;;;16.13;100.00
42591;BME280;28218;53.342;-6.216;2023-05-03T11:11:25;102300.19;;;16.14;100.00
42591;BME280;28218;53.342;-6.216;2023-05-03T11:13:56;102302.03;;;16.13;100.00
42591;BME280;28218;53.342;-6.216;2023-05-03T11:16:24;102302.03;;;16.21;100.00
42591;BME280;28218;53.342;-6.216;2023-05-03T11:18:53;102302.34;;;16.18;100.00
42591;BME280;28218;53.342;-6.216;2023-05-03T11:21:22;102299.22;;;16.06;100.00
42591;BME280;28218;53.342;-6.216;2023-05-03T11:23:50;102293.06;;;15.98;100.00
42591;BME280;28218;53.342;-6.216;2023-05-03T11:26:19;102289.25;;;16.00;100.00
42591;BME280;28218;53.342;-6.216;2023-05-03T11:28:52;102285.06;;;15.98;100.00
42591;BME280;28218;53.342;-6.216;2023-05-03T11:31:22;102276.25;;;15.89;100.00
42591;BME280;28218;53.342;-6.216;2023-05-03T11:33:50;102273.28;;;16.00;100.00
42591;BME280;28218;53.342;-6.216;2023-05-03T11:36:19;102277.09;;;16.06;100.00
42591;BME280;28218;53.342;-6.216;2023-05-03T11:38:47;102279.28;;;16.10;100.00
42591;BME280;28218;53.342;-6.216;2023-05-03T11:41:16;102270.59;;;16.08;100.00
42591;BME280;28218;53.342;-6.216;2023-05-03T11:43:46;102280.59;;;16.15;100.00
42591;BME280;28218;53.342;-6.216;2023-05-03T11:46:26;102280.59;;;16.15;100.00
42591;BME280;28218;53.342;-6.216;2023-05-03T11:48:55;102280.75;;;16.13;100.00
42591;BME280;28218;53.342;-6.216;2023-05-03T11:51:24;102269.94;;;16.23;100.00
42591;BME280;28218;53.342;-6.216;2023-05-03T11:53:52;102276.13;;;16.23;100.00
42591;BME280;28218;53.342;-6.216;2023-05-03T11:56:21;102269.94;;;16.23;100.00
42591;BME280;28218;53.342;-6.216;2023-05-03T11:58:51;102268.28;;;16.30;100.00
42591;BME280;28218;53.342;-6.216;2023-05-03T12:01:23;102256.47;;;16.32;100.00
42591;BME280;28218;53.342;-6.216;2023-05-03T12:03:53;102270.44;;;16.34;100.00
42591;BME280;28218;53.342;-6.216;2023-05-03T12:06:23;102260.78;;;16.42;100.00
42591;BME280;28218;53.342;-6.216;2023-05-03T12:08:54;102264.59;;;16.47;100.00
42591;BME280;28218;53.342;-6.216;2023-05-03T12:11:23;102254.97;;;16.38;100.00
42591;BME280;28218;53.342;-6.216;2023-05-03T12:13:57;102248.97;;;16.36;100.00
42591;BME280;28218;53.342;-6.216;2023-05-03T12:16:26;102251.63;;;16.36;100.00
42591;BME280;28218;53.342;-6.216;2023-05-03T12:18:57;102253.47;;;16.27;100.00
42591;BME280;28218;53.342;-6.216;2023-05-03T12:21:43;102258.78;;;16.27;100.00
42591;BME280;28218;53.342;-6.216;2023-05-03T12:24:24;102242.69;;;16.29;100.00
42591;BME280;28218;53.342;-6.216;2023-05-03T12:26:54;102237.69;;;16.34;100.00
42591;BME280;28218;53.342;-6.216;2023-05-03T12:29:23;102239.03;;;16.30;100.00
42591;BME280;28218;53.342;-6.216;2023-05-03T12:31:54;102241.00;;;16.36;100.00
42591;BME280;28218;53.342;-6.216;2023-05-03T12:34:26;102250.63;;;16.45;100.00
42591;BME280;28218;53.342;-6.216;2023-05-03T12:37:02;102248.66;;;16.39;100.00
42591;BME280;28218;53.342;-6.216;2023-05-03T12:39:32;102257.78;;;16.36;100.00
42591;BME280;28218;53.342;-6.216;2023-05-03T12:42:05;102251.50;;;16.38;100.00
42591;BME280;28218;53.342;-6.216;2023-05-03T12:44:37;102255.31;;;16.35;100.00
42591;BME280;28218;53.342;-6.216;2023-05-03T12:47:09;102247.16;;;16.36;100.00